sensor_id;sensor_type;location;lat;lon;timestamp;temperature;humidity
44671;DHT22;48397;53.016;-2.260;2023-04-15T00:02:17;5.70;99.90
44671;DHT22;48397;53.016;-2.260;2023-04-15T00:04:47;5.70;99.90
44671;DHT22;48397;53.016;-2.260;2023-04-15T00:07:15;5.70;99.90
44671;DHT22;48397;53.016;-2.260;2023-04-15T00:09:44;5.80;99.90
44671;DHT22;48397;53.016;-2.260;2023-04-15T00:12:12;5.80;99.90
44671;DHT22;48397;53.016;-2.260;2023-04-15T00:14:39;5.80;99.90
44671;DHT22;48397;53.016;-2.260;2023-04-15T00:19:35;5.80;99.90
44671;DHT22;48397;53.016;-2.260;2023-04-15T00:22:03;5.90;99.90
44671;DHT22;48397;53.016;-2.260;2023-04-15T00:24:31;5.80;99.90
44671;DHT22;48397;53.016;-2.260;2023-04-15T00:26:59;5.90;99.90
44671;DHT22;48397;53.016;-2.260;2023-04-15T00:29:26;5.80;99.90
44671;DHT22;48397;53.016;-2.260;2023-04-15T00:31:54;5.80;99.90
44671;DHT22;48397;53.016;-2.260;2023-04-15T00:34:23;5.80;99.90
44671;DHT22;48397;53.016;-2.260;2023-04-15T00:36:51;5.80;99.90
44671;DHT22;48397;53.016;-2.260;2023-04-15T00:39:19;5.90;99.90
44671;DHT22;48397;53.016;-2.260;2023-04-15T00:41:47;5.90;99.90
44671;DHT22;48397;53.016;-2.260;2023-04-15T00:46:46;5.90;99.90
44671;DHT22;48397;53.016;-2.260;2023-04-15T00:49:15;5.80;99.90
44671;DHT22;48397;53.016;-2.260;2023-04-15T00:51:45;5.80;99.90
44671;DHT22;48397;53.016;-2.260;2023-04-15T00:54:12;5.90;99.90
44671;DHT22;48397;53.016;-2.260;2023-04-15T00:56:41;5.90;99.90
44671;DHT22;48397;53.016;-2.260;2023-04-15T00:59:09;5.90;99.90
44671;DHT22;48397;53.016;-2.260;2023-04-15T01:01:37;6.00;99.90
44671;DHT22;48397;53.016;-2.260;2023-04-15T01:04:05;6.00;99.90
44671;DHT22;48397;53.016;-2.260;2023-04-15T01:06:33;6.10;99.90
44671;DHT22;48397;53.016;-2.260;2023-04-15T01:09:01;6.10;99.90
44671;DHT22;48397;53.016;-2.260;2023-04-15T01:11:31;6.10;99.90
44671;DHT22;48397;53.016;-2.260;2023-04-15T01:14:02;6.20;99.90
44671;DHT22;48397;53.016;-2.260;2023-04-15T01:16:30;6.10;99.90
44671;DHT22;48397;53.016;-2.260;2023-04-15T01:21:27;6.20;99.90
44671;DHT22;48397;53.016;-2.260;2023-04-15T01:23:54;6.20;99.90
44671;DHT22;48397;53.016;-2.260;2023-04-15T01:26:23;6.20;99.90
44671;DHT22;48397;53.016;-2.260;2023-04-15T01:31:20;6.10;99.90
44671;DHT22;48397;53.016;-2.260;2023-04-15T01:33:48;6.20;99.90
44671;DHT22;48397;53.016;-2.260;2023-04-15T01:36:34;6.10;99.90
44671;DHT22;48397;53.016;-2.260;2023-04-15T01:39:03;6.10;99.90
44671;DHT22;48397;53.016;-2.260;2023-04-15T01:44:02;6.10;99.90
44671;DHT22;48397;53.016;-2.260;2023-04-15T01:46:31;6.00;99.90
44671;DHT22;48397;53.016;-2.260;2023-04-15T01:49:01;6.00;99.90
44671;DHT22;48397;53.016;-2.260;2023-04-15T01:51:32;6.00;99.90
44671;DHT22;48397;53.016;-2.260;2023-04-15T01:54:01;6.00;99.90
44671;DHT22;48397;53.016;-2.260;2023-04-15T01:56:30;5.90;99.90
44671;DHT22;48397;53.016;-2.260;2023-04-15T01:58:59;5.90;99.90
44671;DHT22;48397;53.016;-2.260;2023-04-15T02:01:29;5.80;99.90
44671;DHT22;48397;53.016;-2.260;2023-04-15T02:04:00;5.70;99.90
44671;DHT22;48397;53.016;-2.260;2023-04-15T02:06:32;5.80;99.90
44671;DHT22;48397;53.016;-2.260;2023-04-15T02:09:00;5.70;99.90
44671;DHT22;48397;53.016;-2.260;2023-04-15T02:13:59;5.70;99.90
44671;DHT22;48397;53.016;-2.260;2023-04-15T02:16:28;5.60;99.90
44671;DHT22;48397;53.016;-2.260;2023-04-15T02:18:58;5.50;99.90
44671;DHT22;48397;53.016;-2.260;2023-04-15T02:21:27;5.50;99.90
44671;DHT22;48397;53.016;-2.260;2023-04-15T02:23:56;5.40;99.90
44671;DHT22;48397;53.016;-2.260;2023-04-15T02:26:25;5.30;99.90
44671;DHT22;48397;53.016;-2.260;2023-04-15T02:28:55;5.30;99.90
44671;DHT22;48397;53.016;-2.260;2023-04-15T02:31:24;5.20;99.90
44671;DHT22;48397;53.016;-2.260;2023-04-15T02:33:53;5.30;99.90
44671;DHT22;48397;53.016;-2.260;2023-04-15T02:36:22;5.20;99.90
44671;DHT22;48397;53.016;-2.260;2023-04-15T02:38:51;5.20;99.90
44671;DHT22;48397;53.016;-2.260;2023-04-15T02:43:55;5.10;99.90
44671;DHT22;48397;53.016;-2.260;2023-04-15T02:46:24;5.10;99.90
44671;DHT22;48397;53.016;-2.260;2023-04-15T02:48:55;5.10;99.90
44671;DHT22;48397;53.016;-2.260;2023-04-15T02:51:29;5.10;99.90
44671;DHT22;48397;53.016;-2.260;2023-04-15T02:53:59;5.10;99.90
44671;DHT22;48397;53.016;-2.260;2023-04-15T02:56:29;5.10;99.90
44671;DHT22;48397;53.016;-2.260;2023-04-15T02:58:58;5.00;99.90
44671;DHT22;48397;53.016;-2.260;2023-04-15T03:01:28;5.10;99.90
44671;DHT22;48397;53.016;-2.260;2023-04-15T03:03:57;5.10;99.90
44671;DHT22;48397;53.016;-2.260;2023-04-15T03:06:26;5.10;99.90
44671;DHT22;48397;53.016;-2.260;2023-04-15T03:08:55;5.00;99.90
44671;DHT22;48397;53.016;-2.260;2023-04-15T03:11:25;5.00;99.90
44671;DHT22;48397;53.016;-2.260;2023-04-15T03:19:01;4.70;99.90
44671;DHT22;48397;53.016;-2.260;2023-04-15T03:24:01;4.50;99.90
44671;DHT22;48397;53.016;-2.260;2023-04-15T03:26:30;4.50;99.90
44671;DHT22;48397;53.016;-2.260;2023-04-15T03:31:32;4.40;99.90
44671;DHT22;48397;53.016;-2.260;2023-04-15T03:36:30;4.20;99.90
44671;DHT22;48397;53.016;-2.260;2023-04-15T03:39:00;4.10;99.90
44671;DHT22;48397;53.016;-2.260;2023-04-15T03:41:32;4.20;99.90
44671;DHT22;48397;53.016;-2.260;2023-04-15T03:44:01;4.20;99.90
44671;DHT22;48397;53.016;-2.260;2023-04-15T03:49:00;4.20;99.90
44671;DHT22;48397;53.016;-2.260;2023-04-15T03:53:59;4.30;99.90
44671;DHT22;48397;53.016;-2.260;2023-04-15T03:56:28;4.40;99.90
44671;DHT22;48397;53.016;-2.260;2023-04-15T03:58:57;4.40;99.90
44671;DHT22;48397;53.016;-2.260;2023-04-15T04:01:26;4.50;99.90
44671;DHT22;48397;53.016;-2.260;2023-04-15T04:03:55;4.50;99.90
44671;DHT22;48397;53.016;-2.260;2023-04-15T04:06:24;4.60;99.90
44671;DHT22;48397;53.016;-2.260;2023-04-15T04:08:54;4.50;99.90
44671;DHT22;48397;53.016;-2.260;2023-04-15T04:11:23;4.60;99.90
44671;DHT22;48397;53.016;-2.260;2023-04-15T04:13:52;4.50;99.90
44671;DHT22;48397;53.016;-2.260;2023-04-15T04:16:21;4.50;99.90
44671;DHT22;48397;53.016;-2.260;2023-04-15T04:18:50;4.50;99.90
44671;DHT22;48397;53.016;-2.260;2023-04-15T04:21:19;4.50;99.90
44671;DHT22;48397;53.016;-2.260;2023-04-15T04:23:49;4.50;99.90
44671;DHT22;48397;53.016;-2.260;2023-04-15T04:31:17;4.80;99.90
44671;DHT22;48397;53.016;-2.260;2023-04-15T04:36:16;4.30;99.90
44671;DHT22;48397;53.016;-2.260;2023-04-15T04:38:45;4.30;99.90
44671;DHT22;48397;53.016;-2.260;2023-04-15T04:41:14;4.30;99.90
44671;DHT22;48397;53.016;-2.260;2023-04-15T04:43:43;4.30;99.90
44671;DHT22;48397;53.016;-2.260;2023-04-15T04:51:11;4.20;99.90
44671;DHT22;48397;53.016;-2.260;2023-04-15T04:53:40;4.10;99.90
44671;DHT22;48397;53.016;-2.260;2023-04-15T04:58:40;4.00;99.90
44671;DHT22;48397;53.016;-2.260;2023-04-15T05:01:09;4.00;99.90
44671;DHT22;48397;53.016;-2.260;2023-04-15T05:06:07;4.00;99.90
44671;DHT22;48397;53.016;-2.260;2023-04-15T05:08:36;3.90;99.90
44671;DHT22;48397;53.016;-2.260;2023-04-15T05:16:07;3.80;99.90
44671;DHT22;48397;53.016;-2.260;2023-04-15T05:18:36;3.80;99.90
44671;DHT22;48397;53.016;-2.260;2023-04-15T05:21:05;3.70;99.90
44671;DHT22;48397;53.016;-2.260;2023-04-15T05:23:35;3.60;99.90
44671;DHT22;48397;53.016;-2.260;2023-04-15T05:26:05;3.60;99.90
44671;DHT22;48397;53.016;-2.260;2023-04-15T05:28:34;3.50;99.90
44671;DHT22;48397;53.016;-2.260;2023-04-15T05:31:04;3.50;99.90
44671;DHT22;48397;53.016;-2.260;2023-04-15T05:38:32;3.40;99.90
44671;DHT22;48397;53.016;-2.260;2023-04-15T05:41:01;3.40;99.90
44671;DHT22;48397;53.016;-2.260;2023-04-15T05:43:30;3.40;99.90
44671;DHT22;48397;53.016;-2.260;2023-04-15T05:45:59;3.30;99.90
44671;DHT22;48397;53.016;-2.260;2023-04-15T05:48:28;3.30;99.90
44671;DHT22;48397;53.016;-2.260;2023-04-15T05:50:57;3.30;99.90
44671;DHT22;48397;53.016;-2.260;2023-04-15T05:53:26;3.20;99.90
44671;DHT22;48397;53.016;-2.260;2023-04-15T05:55:55;3.30;99.90
44671;DHT22;48397;53.016;-2.260;2023-04-15T05:58:24;3.20;99.90
44671;DHT22;48397;53.016;-2.260;2023-04-15T06:00:52;3.20;99.90
44671;DHT22;48397;53.016;-2.260;2023-04-15T06:03:21;3.20;99.90
44671;DHT22;48397;53.016;-2.260;2023-04-15T06:05:51;3.20;99.90
44671;DHT22;48397;53.016;-2.260;2023-04-15T06:10:49;3.20;99.90
44671;DHT22;48397;53.016;-2.260;2023-04-15T06:13:18;3.10;99.90
44671;DHT22;48397;53.016;-2.260;2023-04-15T06:15:47;4.90;99.90
44671;DHT22;48397;53.016;-2.260;2023-04-15T06:18:17;3.10;99.90
44671;DHT22;48397;53.016;-2.260;2023-04-15T06:28:13;3.20;99.90
44671;DHT22;48397;53.016;-2.260;2023-04-15T06:35:40;3.30;99.90
44671;DHT22;48397;53.016;-2.260;2023-04-15T06:38:09;3.80;99.90
44671;DHT22;48397;53.016;-2.260;2023-04-15T06:40:38;3.50;99.90
44671;DHT22;48397;53.016;-2.260;2023-04-15T06:43:07;3.60;99.90
44671;DHT22;48397;53.016;-2.260;2023-04-15T06:45:36;3.60;99.90
44671;DHT22;48397;53.016;-2.260;2023-04-15T06:48:05;3.70;99.90
44671;DHT22;48397;53.016;-2.260;2023-04-15T06:50:34;3.70;99.90
44671;DHT22;48397;53.016;-2.260;2023-04-15T06:55:33;4.00;99.90
44671;DHT22;48397;53.016;-2.260;2023-04-15T06:58:02;4.10;99.90
44671;DHT22;48397;53.016;-2.260;2023-04-15T07:00:31;4.10;99.90
44671;DHT22;48397;53.016;-2.260;2023-04-15T07:03:01;4.20;99.90
44671;DHT22;48397;53.016;-2.260;2023-04-15T07:08:01;4.20;99.90
44671;DHT22;48397;53.016;-2.260;2023-04-15T07:10:33;4.30;99.90
44671;DHT22;48397;53.016;-2.260;2023-04-15T07:13:02;4.30;99.90
44671;DHT22;48397;53.016;-2.260;2023-04-15T07:15:32;4.40;99.90
44671;DHT22;48397;53.016;-2.260;2023-04-15T07:18:01;4.40;99.90
44671;DHT22;48397;53.016;-2.260;2023-04-15T07:20:30;4.50;99.90
44671;DHT22;48397;53.016;-2.260;2023-04-15T07:22:59;4.60;99.90
44671;DHT22;48397;53.016;-2.260;2023-04-15T07:25:28;4.70;99.90
44671;DHT22;48397;53.016;-2.260;2023-04-15T07:27:57;4.80;99.90
44671;DHT22;48397;53.016;-2.260;2023-04-15T07:32:55;5.00;99.90
44671;DHT22;48397;53.016;-2.260;2023-04-15T07:35:24;5.10;99.90
44671;DHT22;48397;53.016;-2.260;2023-04-15T07:37:54;5.30;99.90
44671;DHT22;48397;53.016;-2.260;2023-04-15T07:42:53;5.50;99.90
44671;DHT22;48397;53.016;-2.260;2023-04-15T07:45:22;5.60;99.90
44671;DHT22;48397;53.016;-2.260;2023-04-15T07:47:50;5.70;99.90
44671;DHT22;48397;53.016;-2.260;2023-04-15T07:50:20;5.80;99.90
44671;DHT22;48397;53.016;-2.260;2023-04-15T07:52:49;5.90;99.90
44671;DHT22;48397;53.016;-2.260;2023-04-15T07:55:20;6.10;99.90
44671;DHT22;48397;53.016;-2.260;2023-04-15T07:57:50;6.20;99.90
44671;DHT22;48397;53.016;-2.260;2023-04-15T08:00:19;6.20;99.90
44671;DHT22;48397;53.016;-2.260;2023-04-15T08:02:48;6.40;99.90
44671;DHT22;48397;53.016;-2.260;2023-04-15T08:10:16;6.70;99.90
44671;DHT22;48397;53.016;-2.260;2023-04-15T08:12:45;6.80;99.90
44671;DHT22;48397;53.016;-2.260;2023-04-15T08:15:19;6.90;99.90
44671;DHT22;48397;53.016;-2.260;2023-04-15T08:17:48;7.00;99.90
44671;DHT22;48397;53.016;-2.260;2023-04-15T08:20:18;7.10;99.90
44671;DHT22;48397;53.016;-2.260;2023-04-15T08:22:47;7.10;99.90
44671;DHT22;48397;53.016;-2.260;2023-04-15T08:25:19;7.20;99.90
44671;DHT22;48397;53.016;-2.260;2023-04-15T08:30:18;7.20;99.90
44671;DHT22;48397;53.016;-2.260;2023-04-15T08:32:49;7.40;99.90
44671;DHT22;48397;53.016;-2.260;2023-04-15T08:35:18;7.40;99.90
44671;DHT22;48397;53.016;-2.260;2023-04-15T08:37:47;7.50;99.90
44671;DHT22;48397;53.016;-2.260;2023-04-15T08:40:16;7.60;99.90
44671;DHT22;48397;53.016;-2.260;2023-04-15T08:42:48;7.60;99.90
44671;DHT22;48397;53.016;-2.260;2023-04-15T08:45:17;7.80;99.90
44671;DHT22;48397;53.016;-2.260;2023-04-15T08:47:49;7.80;99.90
44671;DHT22;48397;53.016;-2.260;2023-04-15T08:50:19;7.90;99.90
44671;DHT22;48397;53.016;-2.260;2023-04-15T08:52:48;7.90;99.90
44671;DHT22;48397;53.016;-2.260;2023-04-15T08:55:17;8.00;99.90
44671;DHT22;48397;53.016;-2.260;2023-04-15T08:57:48;8.10;99.90
44671;DHT22;48397;53.016;-2.260;2023-04-15T09:00:17;8.10;99.90
44671;DHT22;48397;53.016;-2.260;2023-04-15T09:07:45;8.30;99.90
44671;DHT22;48397;53.016;-2.260;2023-04-15T09:10:15;8.50;99.90
44671;DHT22;48397;53.016;-2.260;2023-04-15T09:12:44;8.50;99.90
44671;DHT22;48397;53.016;-2.260;2023-04-15T09:17:43;8.70;99.90
44671;DHT22;48397;53.016;-2.260;2023-04-15T09:20:14;8.70;99.90
44671;DHT22;48397;53.016;-2.260;2023-04-15T09:22:45;9.50;99.90
44671;DHT22;48397;53.016;-2.260;2023-04-15T09:27:55;9.20;99.90
44671;DHT22;48397;53.016;-2.260;2023-04-15T09:30:24;9.50;99.90
44671;DHT22;48397;53.016;-2.260;2023-04-15T09:32:59;9.60;99.90
44671;DHT22;48397;53.016;-2.260;2023-04-15T09:35:30;9.70;99.90
44671;DHT22;48397;53.016;-2.260;2023-04-15T09:38:08;9.90;99.90
44671;DHT22;48397;53.016;-2.260;2023-04-15T09:40:41;10.00;99.90
44671;DHT22;48397;53.016;-2.260;2023-04-15T09:43:10;10.30;99.90
44671;DHT22;48397;53.016;-2.260;2023-04-15T09:45:51;10.40;99.90
44671;DHT22;48397;53.016;-2.260;2023-04-15T09:48:24;10.50;99.90
44671;DHT22;48397;53.016;-2.260;2023-04-15T09:50:59;10.70;99.90
44671;DHT22;48397;53.016;-2.260;2023-04-15T09:53:33;10.70;99.90
44671;DHT22;48397;53.016;-2.260;2023-04-15T09:56:02;10.70;99.90
44671;DHT22;48397;53.016;-2.260;2023-04-15T09:58:33;10.70;99.90
44671;DHT22;48397;53.016;-2.260;2023-04-15T10:01:03;10.70;99.90
44671;DHT22;48397;53.016;-2.260;2023-04-15T10:03:34;10.60;99.90
44671;DHT22;48397;53.016;-2.260;2023-04-15T10:06:07;10.60;99.90
44671;DHT22;48397;53.016;-2.260;2023-04-15T10:08:37;10.60;99.90
44671;DHT22;48397;53.016;-2.260;2023-04-15T10:11:07;10.70;99.90
44671;DHT22;48397;53.016;-2.260;2023-04-15T10:13:36;10.80;99.90
44671;DHT22;48397;53.016;-2.260;2023-04-15T10:16:17;10.90;99.90
44671;DHT22;48397;53.016;-2.260;2023-04-15T10:18:52;11.10;99.90
44671;DHT22;48397;53.016;-2.260;2023-04-15T10:21:22;11.20;99.90
44671;DHT22;48397;53.016;-2.260;2023-04-15T10:23:51;11.20;99.90
44671;DHT22;48397;53.016;-2.260;2023-04-15T10:26:20;11.40;99.90
44671;DHT22;48397;53.016;-2.260;2023-04-15T10:28:49;11.60;99.90
44671;DHT22;48397;53.016;-2.260;2023-04-15T10:31:20;11.60;99.90
44671;DHT22;48397;53.016;-2.260;2023-04-15T10:33:49;11.80;99.90
44671;DHT22;48397;53.016;-2.260;2023-04-15T10:36:20;11.90;99.90
44671;DHT22;48397;53.016;-2.260;2023-04-15T10:38:49;12.00;99.90
44671;DHT22;48397;53.016;-2.260;2023-04-15T10:41:25;12.10;99.90
44671;DHT22;48397;53.016;-2.260;2023-04-15T10:43:56;12.10;99.90
44671;DHT22;48397;53.016;-2.260;2023-04-15T10:46:42;12.10;99.90
44671;DHT22;48397;53.016;-2.260;2023-04-15T10:49:16;12.10;99.90
44671;DHT22;48397;53.016;-2.260;2023-04-15T10:51:51;12.10;99.90
44671;DHT22;48397;53.016;-2.260;2023-04-15T11:00:08;12.30;99.90
44671;DHT22;48397;53.016;-2.260;2023-04-15T11:02:42;12.50;99.90
44671;DHT22;48397;53.016;-2.260;2023-04-15T11:05:16;12.60;99.90
44671;DHT22;48397;53.016;-2.260;2023-04-15T11:12:56;12.50;99.90
44671;DHT22;48397;53.016;-2.260;2023-04-15T11:15:37;12.40;99.90
44671;DHT22;48397;53.016;-2.260;2023-04-15T11:20:52;12.40;99.90
44671;DHT22;48397;53.016;-2.260;2023-04-15T11:23:32;12.30;99.90
44671;DHT22;48397;53.016;-2.260;2023-04-15T11:26:04;12.30;99.90
44671;DHT22;48397;53.016;-2.260;2023-04-15T11:28:35;12.40;99.90
44671;DHT22;48397;53.016;-2.260;2023-04-15T11:31:11;12.40;99.90
44671;DHT22;48397;53.016;-2.260;2023-04-15T11:33:55;12.40;99.90
44671;DHT22;48397;53.016;-2.260;2023-04-15T11:36:28;12.40;99.90
44671;DHT22;48397;53.016;-2.260;2023-04-15T11:38:58;12.40;99.90
44671;DHT22;48397;53.016;-2.260;2023-04-15T11:41:27;12.70;99.90
44671;DHT22;48397;53.016;-2.260;2023-04-15T11:43:56;12.90;99.90
44671;DHT22;48397;53.016;-2.260;2023-04-15T11:46:29;13.00;99.90
44671;DHT22;48397;53.016;-2.260;2023-04-15T11:48:59;13.30;99.90
44671;DHT22;48397;53.016;-2.260;2023-04-15T11:51:34;13.40;99.90
44671;DHT22;48397;53.016;-2.260;2023-04-15T11:54:02;13.50;99.90
44671;DHT22;48397;53.016;-2.260;2023-04-15T11:56:30;14.10;99.90
44671;DHT22;48397;53.016;-2.260;2023-04-15T12:01:37;14.50;99.90
44671;DHT22;48397;53.016;-2.260;2023-04-15T12:04:15;14.60;99.90
44671;DHT22;48397;53.016;-2.260;2023-04-15T12:06:48;14.80;99.90
44671;DHT22;48397;53.016;-2.260;2023-04-15T12:16:44;14.90;99.90
44671;DHT22;48397;53.016;-2.260;2023-04-15T12:19:21;14.80;99.90
44671;DHT22;48397;53.016;-2.260;2023-04-15T12:21:50;14.80;99.90
44671;DHT22;48397;53.016;-2.260;2023-04-15T12:24:20;14.80;99.90
44671;DHT22;48397;53.016;-2.260;2023-04-15T12:26:55;15.00;99.90
44671;DHT22;48397;53.016;-2.260;2023-04-15T12:29:28;15.00;99.90
44671;DHT22;48397;53.016;-2.260;2023-04-15T12:32:06;14.90;99.90
44671;DHT22;48397;53.016;-2.260;2023-04-15T12:34:39;15.00;99.90
44671;DHT22;48397;53.016;-2.260;2023-04-15T12:37:08;15.20;99.90
44671;DHT22;48397;53.016;-2.260;2023-04-15T12:39:41;15.20;99.90
44671;DHT22;48397;53.016;-2.260;2023-04-15T12:42:09;14.90;99.90
44671;DHT22;48397;53.016;-2.260;2023-04-15T12:44:38;14.90;99.90
44671;DHT22;48397;53.016;-2.260;2023-04-15T12:47:06;15.00;99.90
44671;DHT22;48397;53.016;-2.260;2023-04-15T12:49:34;15.00;99.90
44671;DHT22;48397;53.016;-2.260;2023-04-15T12:52:02;15.10;99.90
44671;DHT22;48397;53.016;-2.260;2023-04-15T12:54:30;15.10;99.90
44671;DHT22;48397;53.016;-2.260;2023-04-15T12:56:58;15.20;99.90
44671;DHT22;48397;53.016;-2.260;2023-04-15T12:59:26;15.20;99.90
44671;DHT22;48397;53.016;-2.260;2023-04-15T13:01:53;15.20;99.90
44671;DHT22;48397;53.016;-2.260;2023-04-15T13:04:22;15.10;99.90
44671;DHT22;48397;53.016;-2.260;2023-04-15T13:06:49;15.10;99.90
44671;DHT22;48397;53.016;-2.260;2023-04-15T13:09:18;15.00;99.90
44671;DHT22;48397;53.016;-2.260;2023-04-15T13:11:45;15.00;99.90
44671;DHT22;48397;53.016;-2.260;2023-04-15T13:14:13;14.90;99.90
44671;DHT22;48397;53.016;-2.260;2023-04-15T13:16:41;14.90;99.90
44671;DHT22;48397;53.016;-2.260;2023-04-15T13:19:08;14.80;99.90
44671;DHT22;48397;53.016;-2.260;2023-04-15T13:21:36;14.70;99.90
44671;DHT22;48397;53.016;-2.260;2023-04-15T13:24:04;14.60;99.90
44671;DHT22;48397;53.016;-2.260;2023-04-15T13:26:34;14.20;99.90
44671;DHT22;48397;53.016;-2.260;2023-04-15T13:29:04;14.00;99.90
44671;DHT22;48397;53.016;-2.260;2023-04-15T13:31:31;14.00;99.90
44671;DHT22;48397;53.016;-2.260;2023-04-15T13:33:59;13.90;99.90
44671;DHT22;48397;53.016;-2.260;2023-04-15T13:38:55;13.50;99.90
44671;DHT22;48397;53.016;-2.260;2023-04-15T13:41:38;13.50;99.90
44671;DHT22;48397;53.016;-2.260;2023-04-15T13:44:07;13.50;99.90
44671;DHT22;48397;53.016;-2.260;2023-04-15T13:46:35;13.60;99.90
44671;DHT22;48397;53.016;-2.260;2023-04-15T13:49:04;13.70;99.90
44671;DHT22;48397;53.016;-2.260;2023-04-15T13:51:33;13.80;99.90
44671;DHT22;48397;53.016;-2.260;2023-04-15T13:54:03;13.90;99.90
44671;DHT22;48397;53.016;-2.260;2023-04-15T13:56:31;13.90;99.90
44671;DHT22;48397;53.016;-2.260;2023-04-15T13:58:59;13.90;99.90
44671;DHT22;48397;53.016;-2.260;2023-04-15T14:01:28;13.80;99.90
44671;DHT22;48397;53.016;-2.260;2023-04-15T14:03:56;13.80;99.90
44671;DHT22;48397;53.016;-2.260;2023-04-15T14:06:24;13.80;99.90
44671;DHT22;48397;53.016;-2.260;2023-04-15T14:08:52;13.80;99.90
44671;DHT22;48397;53.016;-2.260;2023-04-15T14:11:21;13.80;99.90
44671;DHT22;48397;53.016;-2.260;2023-04-15T14:16:16;13.80;99.90
44671;DHT22;48397;53.016;-2.260;2023-04-15T14:18:44;13.80;99.90
44671;DHT22;48397;53.016;-2.260;2023-04-15T14:21:12;13.80;99.90
44671;DHT22;48397;53.016;-2.260;2023-04-15T14:23:40;13.90;99.90
44671;DHT22;48397;53.016;-2.260;2023-04-15T14:26:07;13.90;99.90
44671;DHT22;48397;53.016;-2.260;2023-04-15T14:28:35;14.10;99.90
44671;DHT22;48397;53.016;-2.260;2023-04-15T14:31:06;14.20;99.90
44671;DHT22;48397;53.016;-2.260;2023-04-15T14:33:33;14.20;99.90
44671;DHT22;48397;53.016;-2.260;2023-04-15T14:36:01;14.30;99.90
44671;DHT22;48397;53.016;-2.260;2023-04-15T14:38:29;14.20;99.90
44671;DHT22;48397;53.016;-2.260;2023-04-15T14:40:57;14.10;99.90
44671;DHT22;48397;53.016;-2.260;2023-04-15T14:43:25;14.10;99.90
44671;DHT22;48397;53.016;-2.260;2023-04-15T14:45:52;14.10;99.90
44671;DHT22;48397;53.016;-2.260;2023-04-15T14:48:20;14.30;99.90
44671;DHT22;48397;53.016;-2.260;2023-04-15T14:50:48;14.50;99.90
44671;DHT22;48397;53.016;-2.260;2023-04-15T14:53:15;14.80;99.90
44671;DHT22;48397;53.016;-2.260;2023-04-15T14:55:43;15.00;99.90
44671;DHT22;48397;53.016;-2.260;2023-04-15T14:58:11;15.00;99.90
44671;DHT22;48397;53.016;-2.260;2023-04-15T15:00:39;15.30;99.90
44671;DHT22;48397;53.016;-2.260;2023-04-15T15:03:09;15.40;99.90
44671;DHT22;48397;53.016;-2.260;2023-04-15T15:05:42;15.50;99.90
44671;DHT22;48397;53.016;-2.260;2023-04-15T15:08:11;15.50;99.90
44671;DHT22;48397;53.016;-2.260;2023-04-15T15:10:40;15.50;99.90
44671;DHT22;48397;53.016;-2.260;2023-04-15T15:13:16;15.50;99.90
44671;DHT22;48397;53.016;-2.260;2023-04-15T15:15:45;15.60;99.90
44671;DHT22;48397;53.016;-2.260;2023-04-15T15:18:12;15.70;99.90
44671;DHT22;48397;53.016;-2.260;2023-04-15T15:20:40;15.90;99.90
44671;DHT22;48397;53.016;-2.260;2023-04-15T15:23:08;16.00;99.90
44671;DHT22;48397;53.016;-2.260;2023-04-15T15:25:35;16.30;99.90
44671;DHT22;48397;53.016;-2.260;2023-04-15T15:28:03;16.60;99.90
44671;DHT22;48397;53.016;-2.260;2023-04-15T15:30:32;16.70;99.90
44671;DHT22;48397;53.016;-2.260;2023-04-15T15:32:59;16.70;99.90
44671;DHT22;48397;53.016;-2.260;2023-04-15T15:35:27;17.10;99.90
44671;DHT22;48397;53.016;-2.260;2023-04-15T15:37:54;17.10;99.90
44671;DHT22;48397;53.016;-2.260;2023-04-15T15:40:22;17.20;99.90
44671;DHT22;48397;53.016;-2.260;2023-04-15T15:42:50;17.40;99.90
44671;DHT22;48397;53.016;-2.260;2023-04-15T15:47:47;17.70;99.90
44671;DHT22;48397;53.016;-2.260;2023-04-15T15:50:14;18.30;99.90
44671;DHT22;48397;53.016;-2.260;2023-04-15T15:52:42;19.10;99.90
44671;DHT22;48397;53.016;-2.260;2023-04-15T15:55:09;20.10;99.90
44671;DHT22;48397;53.016;-2.260;2023-04-15T15:57:37;20.10;99.90
44671;DHT22;48397;53.016;-2.260;2023-04-15T16:00:05;21.10;99.90
44671;DHT22;48397;53.016;-2.260;2023-04-15T16:02:39;21.90;99.90
44671;DHT22;48397;53.016;-2.260;2023-04-15T16:05:26;22.50;99.90
44671;DHT22;48397;53.016;-2.260;2023-04-15T16:07:54;23.10;99.90
44671;DHT22;48397;53.016;-2.260;2023-04-15T16:10:22;23.70;99.90
44671;DHT22;48397;53.016;-2.260;2023-04-15T16:12:49;24.00;97.30
44671;DHT22;48397;53.016;-2.260;2023-04-15T16:15:17;24.20;96.20
44671;DHT22;48397;53.016;-2.260;2023-04-15T16:17:44;24.50;93.40
44671;DHT22;48397;53.016;-2.260;2023-04-15T16:20:12;24.50;91.00
44671;DHT22;48397;53.016;-2.260;2023-04-15T16:22:39;24.40;90.40
44671;DHT22;48397;53.016;-2.260;2023-04-15T16:25:07;24.50;91.10
44671;DHT22;48397;53.016;-2.260;2023-04-15T16:27:35;24.80;92.00
44671;DHT22;48397;53.016;-2.260;2023-04-15T16:30:22;25.30;92.00
44671;DHT22;48397;53.016;-2.260;2023-04-15T16:32:50;25.70;90.40
44671;DHT22;48397;53.016;-2.260;2023-04-15T16:35:17;25.80;85.80
44671;DHT22;48397;53.016;-2.260;2023-04-15T16:37:45;25.60;84.40
44671;DHT22;48397;53.016;-2.260;2023-04-15T16:40:12;25.30;81.80
44671;DHT22;48397;53.016;-2.260;2023-04-15T16:42:40;25.00;80.20
44671;DHT22;48397;53.016;-2.260;2023-04-15T16:45:10;24.70;80.00
44671;DHT22;48397;53.016;-2.260;2023-04-15T16:47:37;24.70;78.10
44671;DHT22;48397;53.016;-2.260;2023-04-15T16:50:05;24.60;79.10
44671;DHT22;48397;53.016;-2.260;2023-04-15T16:52:32;24.50;79.10
44671;DHT22;48397;53.016;-2.260;2023-04-15T16:54:59;24.40;78.50
44671;DHT22;48397;53.016;-2.260;2023-04-15T16:57:27;24.40;79.00
44671;DHT22;48397;53.016;-2.260;2023-04-15T17:00:14;24.50;79.80
44671;DHT22;48397;53.016;-2.260;2023-04-15T17:02:42;24.60;80.70
44671;DHT22;48397;53.016;-2.260;2023-04-15T17:05:10;24.90;81.00
44671;DHT22;48397;53.016;-2.260;2023-04-15T17:07:37;25.20;81.10
44671;DHT22;48397;53.016;-2.260;2023-04-15T17:10:05;25.50;81.40
44671;DHT22;48397;53.016;-2.260;2023-04-15T17:12:32;25.70;80.60
44671;DHT22;48397;53.016;-2.260;2023-04-15T17:15:00;25.90;80.40
44671;DHT22;48397;53.016;-2.260;2023-04-15T17:17:29;26.20;80.50
44671;DHT22;48397;53.016;-2.260;2023-04-15T17:19:57;26.40;78.80
44671;DHT22;48397;53.016;-2.260;2023-04-15T17:22:24;26.40;76.70
44671;DHT22;48397;53.016;-2.260;2023-04-15T17:24:52;26.00;74.60
44671;DHT22;48397;53.016;-2.260;2023-04-15T17:27:21;25.50;73.90
44671;DHT22;48397;53.016;-2.260;2023-04-15T17:29:48;24.70;72.90
44671;DHT22;48397;53.016;-2.260;2023-04-15T17:32:37;23.90;73.60
44671;DHT22;48397;53.016;-2.260;2023-04-15T17:37:14;21.80;74.60
44671;DHT22;48397;53.016;-2.260;2023-04-15T17:40:02;21.10;75.50
44671;DHT22;48397;53.016;-2.260;2023-04-15T17:42:52;20.20;76.10
44671;DHT22;48397;53.016;-2.260;2023-04-15T17:45:40;19.50;76.90
44671;DHT22;48397;53.016;-2.260;2023-04-15T17:48:27;19.50;77.40
44671;DHT22;48397;53.016;-2.260;2023-04-15T17:51:14;18.90;78.00
44671;DHT22;48397;53.016;-2.260;2023-04-15T17:54:03;17.60;78.70
44671;DHT22;48397;53.016;-2.260;2023-04-15T17:56:50;17.00;79.30
44671;DHT22;48397;53.016;-2.260;2023-04-15T17:59:38;16.40;80.40